createdAt,value
2023-03-26T00:01:17.571Z,2.87
2023-03-26T00:03:53.476Z,5.70
2023-03-26T00:06:28.984Z,2.60
2023-03-26T00:08:57.568Z,2.37
2023-03-26T00:11:26.485Z,4.00
2023-03-26T00:13:56.979Z,1.30
2023-03-26T00:16:26.079Z,3.27
2023-03-26T00:18:53.479Z,2.40
2023-03-26T00:21:27.817Z,2.30
2023-03-26T00:24:06.700Z,1.73
2023-03-26T00:26:35.494Z,2.27
2023-03-26T00:29:04.019Z,0.40
2023-03-26T00:31:31.565Z,1.27
2023-03-26T00:33:59.457Z,1.80
2023-03-26T00:36:27.243Z,3.03
2023-03-26T00:38:54.564Z,0.90
2023-03-26T00:41:25.884Z,3.27
2023-03-26T00:43:56.470Z,1.53
2023-03-26T00:46:24.942Z,1.73
2023-03-26T00:48:51.785Z,3.37
2023-03-26T00:51:20.638Z,2.90
2023-03-26T00:53:49.481Z,2.97
2023-03-26T00:56:16.682Z,2.43
2023-03-26T00:58:43.903Z,3.27
2023-03-26T01:01:16.747Z,2.53
2023-03-26T01:04:00.752Z,1.40
2023-03-26T01:06:35.751Z,2.67
2023-03-26T01:09:15.840Z,2.80
2023-03-26T01:11:43.311Z,3.80
2023-03-26T01:14:15.926Z,3.77
2023-03-26T01:16:46.442Z,1.77
2023-03-26T01:19:45.217Z,2.80
2023-03-26T01:22:18.667Z,3.60
2023-03-26T01:24:53.496Z,1.40
2023-03-26T01:28:00.901Z,2.43
2023-03-26T01:30:30.915Z,2.10
2023-03-26T01:33:14.151Z,2.83
2023-03-26T01:35:54.575Z,3.07
2023-03-26T01:38:46.738Z,3.47
2023-03-26T01:41:30.056Z,3.60
2023-03-26T01:44:06.661Z,2.23
2023-03-26T01:46:36.342Z,3.67
2023-03-26T01:49:06.398Z,2.77
2023-03-26T01:51:35.617Z,1.83
2023-03-26T01:54:05.517Z,2.20
2023-03-26T01:56:58.274Z,2.77
2023-03-26T01:59:52.694Z,2.23
2023-03-26T02:02:38.683Z,2.90
2023-03-26T02:05:17.464Z,2.90
2023-03-26T02:07:55.976Z,2.20
2023-03-26T02:10:30.612Z,1.30
2023-03-26T02:12:58.799Z,2.80
2023-03-26T02:15:25.940Z,4.00
2023-03-26T02:17:54.011Z,3.13
2023-03-26T02:20:21.735Z,5.17
2023-03-26T02:22:48.610Z,4.07
2023-03-26T02:25:20.448Z,4.30
2023-03-26T02:27:52.008Z,3.23
2023-03-26T02:30:29.759Z,2.93
2023-03-26T02:32:59.954Z,5.50
2023-03-26T02:35:34.400Z,2.97
2023-03-26T02:38:02.508Z,3.83
2023-03-26T02:40:29.255Z,0.93
2023-03-26T02:42:56.683Z,2.97
2023-03-26T02:45:24.035Z,2.53
2023-03-26T02:48:23.637Z,5.37
2023-03-26T02:50:58.965Z,1.40
2023-03-26T02:53:29.800Z,2.30
2023-03-26T02:56:13.792Z,1.60
2023-03-26T02:58:50.502Z,3.60
2023-03-26T03:01:18.295Z,4.17
2023-03-26T03:03:52.252Z,2.03
2023-03-26T03:06:34.916Z,5.57
2023-03-26T03:09:02.805Z,3.43
2023-03-26T03:11:36.062Z,5.57
2023-03-26T03:14:03.289Z,4.10
2023-03-26T03:16:31.729Z,7.13
2023-03-26T03:19:03.594Z,6.10
2023-03-26T03:21:36.181Z,3.87
2023-03-26T03:24:03.154Z,3.37
2023-03-26T03:26:34.349Z,7.07
2023-03-26T03:29:16.116Z,8.20
2023-03-26T03:31:43.056Z,10.30
2023-03-26T03:34:21.699Z,7.93
2023-03-26T03:36:50.993Z,8.77
2023-03-26T03:39:44.117Z,4.93
2023-03-26T03:42:13.185Z,3.50
2023-03-26T03:44:40.340Z,4.73
2023-03-26T03:47:16.884Z,2.00
2023-03-26T03:49:44.001Z,2.57
2023-03-26T03:52:10.890Z,4.03
2023-03-26T03:54:41.412Z,1.67
2023-03-26T03:57:28.860Z,4.80
2023-03-26T04:00:01.802Z,5.53
2023-03-26T04:02:43.172Z,3.80
2023-03-26T04:05:11.754Z,3.70
2023-03-26T04:07:45.228Z,2.30
2023-03-26T04:10:36.220Z,3.77
2023-03-26T04:13:05.946Z,2.73
2023-03-26T04:15:48.477Z,3.17
2023-03-26T04:18:15.571Z,2.40
2023-03-26T04:20:46.488Z,3.73
2023-03-26T04:23:19.394Z,2.10
2023-03-26T04:25:54.571Z,5.30
2023-03-26T04:28:33.714Z,2.00
2023-03-26T04:31:19.249Z,4.13
2023-03-26T04:33:47.465Z,1.67
2023-03-26T04:36:17.177Z,3.23
2023-03-26T04:38:51.916Z,3.73
2023-03-26T04:41:26.309Z,4.07
2023-03-26T04:44:02.055Z,3.13
2023-03-26T04:46:43.712Z,5.13
2023-03-26T04:49:17.607Z,1.57
2023-03-26T04:51:46.770Z,1.53
2023-03-26T04:54:33.525Z,2.17
2023-03-26T04:57:09.407Z,1.70
2023-03-26T04:59:46.251Z,1.47
2023-03-26T05:02:14.469Z,0.93
2023-03-26T05:04:53.164Z,0.97
2023-03-26T05:09:06.275Z,1.33
2023-03-26T05:11:53.807Z,0.90
2023-03-26T05:14:20.941Z,3.13
2023-03-26T05:16:50.471Z,2.97
2023-03-26T05:19:17.367Z,3.67
2023-03-26T05:21:44.200Z,3.50
2023-03-26T05:24:11.558Z,3.07
2023-03-26T05:26:38.479Z,5.80
2023-03-26T05:29:05.715Z,2.67
2023-03-26T05:31:35.753Z,4.07
2023-03-26T05:34:03.978Z,1.40
2023-03-26T05:36:30.861Z,3.47
2023-03-26T05:39:16.551Z,3.67
2023-03-26T05:42:07.787Z,6.83
2023-03-26T05:44:54.952Z,9.47
2023-03-26T05:47:27.338Z,7.03
2023-03-26T05:49:54.261Z,8.87
2023-03-26T05:52:21.176Z,4.47
2023-03-26T05:55:18.461Z,4.47
2023-03-26T05:58:03.830Z,5.03
2023-03-26T06:00:48.879Z,2.57
2023-03-26T06:03:27.503Z,3.43
2023-03-26T06:06:17.651Z,6.93
2023-03-26T06:09:02.666Z,5.50
2023-03-26T06:11:31.951Z,9.60
2023-03-26T06:14:00.515Z,8.20
2023-03-26T06:16:28.381Z,6.43
2023-03-26T06:19:15.828Z,5.97
2023-03-26T06:21:57.779Z,6.87
2023-03-26T06:24:30.449Z,9.10
2023-03-26T06:27:09.823Z,7.63
2023-03-26T06:30:03.073Z,3.27
2023-03-26T06:32:53.094Z,5.50
2023-03-26T06:35:24.722Z,3.33
2023-03-26T06:37:51.879Z,6.83
2023-03-26T06:40:18.789Z,3.37
2023-03-26T06:43:08.668Z,7.97
2023-03-26T06:45:54.476Z,2.73
2023-03-26T06:48:36.545Z,5.67
2023-03-26T06:51:22.166Z,10.17
2023-03-26T06:54:17.044Z,8.33
2023-03-26T06:56:56.979Z,3.30
2023-03-26T06:59:23.829Z,7.37
2023-03-26T07:02:11.554Z,4.53
2023-03-26T07:04:56.947Z,7.47
2023-03-26T07:07:46.681Z,7.90
2023-03-26T07:10:33.144Z,6.80
2023-03-26T07:13:08.720Z,5.47
2023-03-26T07:15:50.372Z,6.27
2023-03-26T07:18:33.369Z,3.53
2023-03-26T07:21:02.494Z,5.20
2023-03-26T07:23:31.868Z,6.07
2023-03-26T07:26:31.360Z,5.20
2023-03-26T07:29:24.090Z,7.67
2023-03-26T07:32:36.936Z,4.50
2023-03-26T07:35:32.632Z,6.97
2023-03-26T07:38:37.029Z,4.93
2023-03-26T07:41:42.694Z,4.00
2023-03-26T07:44:43.934Z,4.03
2023-03-26T07:47:35.109Z,2.17
2023-03-26T07:50:25.461Z,6.00
2023-03-26T07:53:04.516Z,4.67
2023-03-26T07:56:12.499Z,6.97
2023-03-26T07:58:59.345Z,4.53
2023-03-26T08:01:58.809Z,7.50
2023-03-26T08:05:10.385Z,7.67
2023-03-26T08:08:16.568Z,6.93
2023-03-26T08:11:02.532Z,5.20
2023-03-26T08:13:54.294Z,6.80
2023-03-26T08:16:33.486Z,5.80
2023-03-26T08:19:24.370Z,6.10
2023-03-26T08:21:55.535Z,6.33
2023-03-26T08:24:34.346Z,3.33
2023-03-26T08:27:21.496Z,5.07
2023-03-26T08:29:58.013Z,4.57
2023-03-26T08:32:26.321Z,2.27
2023-03-26T08:34:53.176Z,4.37
2023-03-26T08:37:20.014Z,3.87
2023-03-26T08:39:46.816Z,8.63
2023-03-26T08:42:19.447Z,3.00
2023-03-26T08:45:25.029Z,2.53
2023-03-26T08:48:19.857Z,6.13
2023-03-26T08:50:58.311Z,6.63
2023-03-26T08:53:33.358Z,8.97
2023-03-26T08:56:39.944Z,8.80
2023-03-26T08:59:37.490Z,10.80
2023-03-26T09:02:23.478Z,6.30
2023-03-26T09:05:14.710Z,4.83
2023-03-26T09:07:56.288Z,4.37
2023-03-26T09:10:51.337Z,6.50
2023-03-26T09:13:33.278Z,9.40
2023-03-26T09:16:21.492Z,7.00
2023-03-26T09:19:04.157Z,6.20
2023-03-26T09:21:55.485Z,5.43
2023-03-26T09:24:31.388Z,7.43
2023-03-26T09:27:26.008Z,3.07
2023-03-26T09:30:36.255Z,6.83
2023-03-26T09:33:22.046Z,3.00
2023-03-26T09:36:17.451Z,4.43
2023-03-26T09:38:49.099Z,4.50
2023-03-26T09:41:21.652Z,3.17
2023-03-26T09:44:14.143Z,4.47
2023-03-26T09:46:41.132Z,2.87
2023-03-26T09:49:21.745Z,2.43
2023-03-26T09:52:00.740Z,2.67
2023-03-26T09:54:36.893Z,3.50
2023-03-26T09:57:45.773Z,4.50
2023-03-26T10:00:25.752Z,2.97
2023-03-26T10:03:11.109Z,3.13
2023-03-26T10:05:56.805Z,3.10
2023-03-26T10:08:28.485Z,4.00
2023-03-26T10:11:14.993Z,4.10
2023-03-26T10:14:18.838Z,1.83
2023-03-26T10:17:05.012Z,5.17
2023-03-26T10:19:52.601Z,3.27
2023-03-26T10:22:38.605Z,3.87
2023-03-26T10:25:17.850Z,4.10
2023-03-26T10:28:09.203Z,4.60
2023-03-26T10:31:06.601Z,5.93
2023-03-26T10:34:28.708Z,7.03
2023-03-26T10:37:32.569Z,5.40
2023-03-26T10:40:17.947Z,3.67
2023-03-26T10:43:12.688Z,2.10
2023-03-26T10:46:09.782Z,2.43
2023-03-26T10:49:03.617Z,2.63
2023-03-26T10:51:39.748Z,2.83
2023-03-26T10:54:31.317Z,5.23
2023-03-26T10:57:00.731Z,3.37
2023-03-26T10:59:27.750Z,3.80
2023-03-26T11:02:17.665Z,2.03
2023-03-26T11:04:55.684Z,2.03
2023-03-26T11:07:51.770Z,1.70
2023-03-26T11:10:36.866Z,2.97
2023-03-26T11:13:28.522Z,1.93
2023-03-26T11:16:01.661Z,3.60
2023-03-26T11:18:54.368Z,2.37
2023-03-26T11:21:48.499Z,3.33
2023-03-26T11:24:24.474Z,3.30
2023-03-26T11:27:23.175Z,1.07
2023-03-26T11:30:13.374Z,2.27
2023-03-26T11:32:44.279Z,4.90
2023-03-26T11:35:40.234Z,4.87
2023-03-26T11:38:37.500Z,1.90
2023-03-26T11:41:13.857Z,1.87
2023-03-26T11:44:15.027Z,1.57
2023-03-26T11:46:45.269Z,2.80
2023-03-26T11:49:16.635Z,6.73
2023-03-26T11:51:47.369Z,2.70
2023-03-26T11:54:15.104Z,1.90
2023-03-26T11:57:05.527Z,2.47
2023-03-26T11:59:39.210Z,2.30
2023-03-26T12:02:23.137Z,2.50
2023-03-26T12:05:02.978Z,2.40
2023-03-26T12:07:34.987Z,1.07
2023-03-26T12:10:20.743Z,2.17
2023-03-26T12:12:48.591Z,2.13
2023-03-26T12:15:19.033Z,3.00
2023-03-26T12:17:48.242Z,4.20
2023-03-26T12:20:25.502Z,3.63
2023-03-26T12:22:59.236Z,1.90
2023-03-26T12:25:34.826Z,2.53
2023-03-26T12:28:13.535Z,1.30
2023-03-26T12:30:42.450Z,1.40
2023-03-26T12:33:35.287Z,1.83
2023-03-26T12:36:31.510Z,1.60
2023-03-26T12:39:17.188Z,3.70
2023-03-26T12:43:40.602Z,1.10
2023-03-26T12:44:58.763Z,1.87
2023-03-26T12:48:00.605Z,3.60
2023-03-26T12:50:34.554Z,1.07
2023-03-26T12:53:24.004Z,2.20
2023-03-26T12:56:01.449Z,0.93
2023-03-26T12:59:07.356Z,2.33
2023-03-26T13:02:03.093Z,1.03
2023-03-26T13:05:04.994Z,1.47
2023-03-26T13:07:47.488Z,2.07
2023-03-26T13:10:26.461Z,1.77
2023-03-26T13:13:14.525Z,3.83
2023-03-26T13:15:47.225Z,0.70
2023-03-26T13:18:21.384Z,0.97
2023-03-26T13:20:58.895Z,2.10
2023-03-26T13:23:46.623Z,1.13
2023-03-26T13:26:22.156Z,0.67
2023-03-26T13:29:11.502Z,2.60
2023-03-26T13:31:59.646Z,1.27
2023-03-26T13:35:17.856Z,2.40
2023-03-26T13:38:25.983Z,0.40
2023-03-26T13:41:34.224Z,1.73
2023-03-26T13:44:23.332Z,0.87
2023-03-26T13:46:58.249Z,1.03
2023-03-26T13:49:37.433Z,1.27
2023-03-26T13:52:07.081Z,1.13
2023-03-26T13:54:53.416Z,1.50
2023-03-26T13:57:29.959Z,1.70
2023-03-26T14:00:12.758Z,1.70
2023-03-26T14:02:41.999Z,0.90
2023-03-26T14:05:28.162Z,1.07
2023-03-26T14:08:36.139Z,1.47
2023-03-26T14:11:10.979Z,1.40
2023-03-26T14:13:46.073Z,2.43
2023-03-26T14:16:38.884Z,0.83
2023-03-26T14:19:32.076Z,1.77
2023-03-26T14:22:10.594Z,1.90
2023-03-26T14:24:52.363Z,0.93
2023-03-26T14:27:45.357Z,0.90
2023-03-26T14:30:36.669Z,1.03
2023-03-26T14:33:34.115Z,1.10
2023-03-26T14:36:30.037Z,1.40
2023-03-26T14:39:18.682Z,1.30
2023-03-26T14:41:51.956Z,2.67
2023-03-26T14:44:30.918Z,3.10
2023-03-26T14:47:16.882Z,1.03
2023-03-26T14:50:11.794Z,1.40
2023-03-26T14:52:51.688Z,1.13
2023-03-26T14:55:29.345Z,1.97
2023-03-26T14:58:04.968Z,1.83
2023-03-26T15:01:04.201Z,2.33
2023-03-26T15:03:34.652Z,3.20
2023-03-26T15:06:21.103Z,2.03
2023-03-26T15:09:22.139Z,1.37
2023-03-26T15:11:51.932Z,1.90
2023-03-26T15:14:37.681Z,2.47
2023-03-26T15:17:35.642Z,5.40
2023-03-26T15:20:20.326Z,1.63
2023-03-26T15:23:14.932Z,1.80
2023-03-26T15:26:23.392Z,4.33
2023-03-26T15:29:04.266Z,2.97
2023-03-26T15:31:37.211Z,2.40
2023-03-26T15:34:25.851Z,3.30
2023-03-26T15:37:17.665Z,2.63
2023-03-26T15:40:10.019Z,2.03
2023-03-26T15:42:46.397Z,7.10
2023-03-26T15:45:19.658Z,3.00
2023-03-26T15:47:49.765Z,1.90
2023-03-26T15:50:24.945Z,3.00
2023-03-26T15:53:18.660Z,3.17
2023-03-26T15:55:54.343Z,3.00
2023-03-26T15:58:59.514Z,1.67
2023-03-26T16:01:26.292Z,1.50
2023-03-26T16:04:01.289Z,2.40
2023-03-26T16:06:50.348Z,1.53
2023-03-26T16:09:35.434Z,1.23
2023-03-26T16:12:17.207Z,2.30
2023-03-26T16:15:03.916Z,2.03
2023-03-26T16:18:12.277Z,0.50
2023-03-26T16:20:57.116Z,0.57
2023-03-26T16:23:57.982Z,0.60
2023-03-26T16:26:58.123Z,1.83
2023-03-26T16:29:28.515Z,2.37
2023-03-26T16:32:10.657Z,2.40
2023-03-26T16:34:52.964Z,3.13
2023-03-26T16:37:35.966Z,1.50
2023-03-26T16:40:17.984Z,2.20
2023-03-26T16:42:53.803Z,2.20
2023-03-26T16:45:53.262Z,2.13
2023-03-26T16:48:55.154Z,1.87
2023-03-26T16:51:33.159Z,0.70
2023-03-26T16:54:41.242Z,2.63
2023-03-26T16:57:17.237Z,2.30
2023-03-26T17:00:08.226Z,2.00
2023-03-26T17:02:57.237Z,1.57
2023-03-26T17:05:37.524Z,3.07
2023-03-26T17:08:36.319Z,2.03
2023-03-26T17:11:20.887Z,2.50
2023-03-26T17:14:06.567Z,1.03
2023-03-26T17:16:41.432Z,1.73
2023-03-26T17:19:11.249Z,1.00
2023-03-26T17:21:45.790Z,1.37
2023-03-26T17:24:27.149Z,0.90
2023-03-26T17:27:35.204Z,1.90
2023-03-26T17:30:21.208Z,1.60
2023-03-26T17:33:10.786Z,0.50
2023-03-26T17:35:47.642Z,0.80
2023-03-26T17:38:17.324Z,0.87
2023-03-26T17:40:55.191Z,2.23
2023-03-26T17:43:51.925Z,0.90
2023-03-26T17:46:39.126Z,0.70
2023-03-26T17:49:11.706Z,1.87
2023-03-26T17:51:59.388Z,1.07
2023-03-26T17:54:41.331Z,0.90
2023-03-26T17:57:47.232Z,2.40
2023-03-26T18:00:18.439Z,2.20
2023-03-26T18:02:56.457Z,3.60
2023-03-26T18:05:29.068Z,2.90
2023-03-26T18:08:20.696Z,5.30
2023-03-26T18:11:08.831Z,2.73
2023-03-26T18:13:41.516Z,3.30
2023-03-26T18:16:18.732Z,1.70
2023-03-26T18:18:46.028Z,2.60
2023-03-26T18:21:24.996Z,1.27
2023-03-26T18:23:52.583Z,0.97
2023-03-26T18:26:32.391Z,0.50
2023-03-26T18:29:31.939Z,0.67
2023-03-26T18:32:02.523Z,0.50
2023-03-26T18:34:34.115Z,1.40
2023-03-26T18:37:16.795Z,2.17
2023-03-26T18:40:02.165Z,1.87
2023-03-26T18:42:32.462Z,1.30
2023-03-26T18:45:05.141Z,0.60
2023-03-26T18:47:32.227Z,1.43
2023-03-26T18:50:00.108Z,0.60
2023-03-26T18:52:29.500Z,2.27
2023-03-26T18:54:59.068Z,3.47
2023-03-26T18:57:28.599Z,3.77
2023-03-26T19:00:09.914Z,4.40
2023-03-26T19:02:38.184Z,1.00
2023-03-26T19:05:05.970Z,1.20
2023-03-26T19:07:35.242Z,1.50
2023-03-26T19:10:02.423Z,1.50
2023-03-26T19:12:32.891Z,1.33
2023-03-26T19:15:13.982Z,0.80
2023-03-26T19:17:53.262Z,1.30
2023-03-26T19:20:24.014Z,0.83
2023-03-26T19:22:51.269Z,1.13
2023-03-26T19:25:26.096Z,2.33
2023-03-26T19:27:52.875Z,1.00
2023-03-26T19:30:32.788Z,1.17
2023-03-26T19:33:12.287Z,1.53
2023-03-26T19:35:42.177Z,0.73
2023-03-26T19:38:23.083Z,1.20
2023-03-26T19:40:55.609Z,1.20
2023-03-26T19:43:24.465Z,0.93
2023-03-26T19:46:00.195Z,0.80
2023-03-26T19:48:46.557Z,0.83
2023-03-26T19:51:31.555Z,2.03
2023-03-26T19:54:00.825Z,2.40
2023-03-26T19:56:28.686Z,1.17
2023-03-26T19:58:56.895Z,2.43
2023-03-26T20:01:26.661Z,2.00
2023-03-26T20:04:00.732Z,2.77
2023-03-26T20:06:43.046Z,3.07
2023-03-26T20:09:12.750Z,1.87
2023-03-26T20:11:40.801Z,1.53
2023-03-26T20:14:14.513Z,1.40
2023-03-26T20:16:43.841Z,1.40
2023-03-26T20:19:13.908Z,0.90
2023-03-26T20:21:41.371Z,1.33
2023-03-26T20:24:14.649Z,1.67
2023-03-26T20:26:41.825Z,2.00
2023-03-26T20:29:08.601Z,4.23
2023-03-26T20:31:35.468Z,4.10
2023-03-26T20:34:02.568Z,2.13
2023-03-26T20:36:33.747Z,4.07
2023-03-26T20:39:06.160Z,1.77
2023-03-26T20:41:34.146Z,1.67
2023-03-26T20:44:03.452Z,1.70
2023-03-26T20:46:31.195Z,1.53
2023-03-26T20:49:00.098Z,2.10
2023-03-26T20:51:28.481Z,0.93
2023-03-26T20:53:56.280Z,1.60
2023-03-26T20:56:23.768Z,2.07
2023-03-26T20:59:03.596Z,1.37
2023-03-26T21:01:35.187Z,3.33
2023-03-26T21:04:04.269Z,1.47
2023-03-26T21:06:31.641Z,2.20
2023-03-26T21:08:58.800Z,1.70
2023-03-26T21:11:51.382Z,1.70
2023-03-26T21:14:25.741Z,0.83
2023-03-26T21:16:52.891Z,1.27
2023-03-26T21:19:20.285Z,1.10
2023-03-26T21:21:59.293Z,1.53
2023-03-26T21:24:35.053Z,3.13
2023-03-26T21:27:08.410Z,1.00
2023-03-26T21:29:35.473Z,0.87
2023-03-26T21:32:02.727Z,1.47
2023-03-26T21:34:32.873Z,1.17
2023-03-26T21:37:00.954Z,2.50
2023-03-26T21:39:28.840Z,1.07
2023-03-26T21:42:05.304Z,2.03
2023-03-26T21:44:33.520Z,0.57
2023-03-26T21:47:00.801Z,1.23
2023-03-26T21:49:28.188Z,1.00
2023-03-26T21:51:55.334Z,2.17
2023-03-26T21:54:22.380Z,0.83
2023-03-26T21:57:12.406Z,1.57
2023-03-26T21:59:55.172Z,1.47
2023-03-26T22:02:36.333Z,0.70
2023-03-26T22:05:19.350Z,1.30
2023-03-26T22:08:02.837Z,0.80
2023-03-26T22:10:31.188Z,1.37
2023-03-26T22:12:58.607Z,1.20
2023-03-26T22:15:31.125Z,4.27
2023-03-26T22:18:02.468Z,0.83
2023-03-26T22:20:29.531Z,0.70
2023-03-26T22:22:56.693Z,1.93
2023-03-26T22:25:24.142Z,1.27
2023-03-26T22:27:51.692Z,0.80
2023-03-26T22:30:20.758Z,1.33
2023-03-26T22:32:48.582Z,1.60
2023-03-26T22:35:15.869Z,1.13
2023-03-26T22:37:43.109Z,1.07
2023-03-26T22:40:13.658Z,0.60
2023-03-26T22:42:41.269Z,1.20
2023-03-26T22:45:09.425Z,0.73
2023-03-26T22:47:36.702Z,1.17
2023-03-26T22:50:05.008Z,1.30
2023-03-26T22:52:31.804Z,1.70
2023-03-26T22:54:58.720Z,1.83
2023-03-26T22:57:25.681Z,1.60
2023-03-26T22:59:52.957Z,0.63
2023-03-26T23:02:20.165Z,1.13
2023-03-26T23:04:48.524Z,4.27
2023-03-26T23:07:15.384Z,0.60
2023-03-26T23:09:42.196Z,1.07
2023-03-26T23:12:09.023Z,0.80
2023-03-26T23:14:36.257Z,1.33
2023-03-26T23:17:03.595Z,0.50
2023-03-26T23:19:30.457Z,0.87
2023-03-26T23:21:57.333Z,0.70
2023-03-26T23:24:26.381Z,0.57
2023-03-26T23:26:53.904Z,1.27
2023-03-26T23:29:21.033Z,0.97
2023-03-26T23:31:48.059Z,0.40
2023-03-26T23:34:16.760Z,0.57
2023-03-26T23:36:44.714Z,2.07
2023-03-26T23:39:11.576Z,0.80
2023-03-26T23:41:38.545Z,1.43
2023-03-26T23:44:05.387Z,0.47
2023-03-26T23:46:35.436Z,0.50
2023-03-26T23:49:03.383Z,1.43
2023-03-26T23:51:31.159Z,0.60
2023-03-26T23:53:58.487Z,2.00
2023-03-26T23:56:27.550Z,1.40
2023-03-26T23:58:55.166Z,0.37
